createdAt,value
2023-02-21T00:00:24.260Z,2.70
2023-02-21T00:03:31.106Z,2.80
2023-02-21T00:06:36.580Z,2.30
2023-02-21T00:09:42.265Z,2.38
2023-02-21T00:12:48.057Z,2.15
2023-02-21T00:15:53.789Z,1.65
2023-02-21T00:19:00.657Z,2.28
2023-02-21T00:22:06.444Z,2.65
2023-02-21T00:25:12.236Z,2.08
2023-02-21T00:28:19.366Z,1.65
2023-02-21T00:31:25.281Z,2.30
2023-02-21T00:34:32.512Z,2.20
2023-02-21T00:37:37.853Z,3.15
2023-02-21T00:40:43.715Z,2.33
2023-02-21T00:43:50.157Z,2.20
2023-02-21T00:46:55.664Z,2.10
2023-02-21T00:50:02.571Z,2.63
2023-02-21T00:53:08.296Z,1.83
2023-02-21T00:56:14.098Z,1.92
2023-02-21T00:59:19.877Z,2.90
2023-02-21T01:02:26.376Z,2.33
2023-02-21T01:05:33.675Z,2.25
2023-02-21T01:08:39.494Z,2.35
2023-02-21T01:11:45.179Z,2.78
2023-02-21T01:14:50.630Z,2.30
2023-02-21T01:17:56.414Z,2.13
2023-02-21T01:21:03.408Z,2.10
2023-02-21T01:24:09.135Z,2.20
2023-02-21T01:27:14.903Z,2.33
2023-02-21T01:30:20.643Z,2.08
2023-02-21T01:33:26.208Z,2.40
2023-02-21T01:36:33.261Z,2.03
2023-02-21T01:39:38.941Z,2.00
2023-02-21T01:42:47.304Z,1.88
2023-02-21T01:46:04.421Z,1.80
2023-02-21T01:49:12.946Z,2.10
2023-02-21T01:52:21.700Z,2.10
2023-02-21T01:55:28.860Z,2.15
2023-02-21T01:58:34.841Z,2.15
2023-02-21T02:01:50.386Z,2.17
2023-02-21T02:04:56.183Z,2.33
2023-02-21T02:08:03.152Z,2.28
2023-02-21T02:11:15.708Z,2.30
2023-02-21T02:14:18.324Z,2.08
2023-02-21T02:17:16.754Z,2.78
2023-02-21T02:20:27.364Z,2.40
2023-02-21T02:23:40.669Z,2.33
2023-02-21T02:26:50.472Z,2.63
2023-02-21T02:30:04.150Z,2.08
2023-02-21T02:33:21.767Z,2.65
2023-02-21T02:36:16.589Z,2.70
2023-02-21T02:39:24.841Z,2.20
2023-02-21T02:42:23.913Z,1.80
2023-02-21T02:45:16.097Z,2.40
2023-02-21T02:48:10.139Z,2.50
2023-02-21T02:50:59.397Z,2.22
2023-02-21T02:53:48.756Z,2.15
2023-02-21T02:56:38.931Z,1.98
2023-02-21T02:59:30.069Z,2.05
2023-02-21T03:02:38.738Z,2.70
2023-02-21T03:05:44.796Z,2.35
2023-02-21T03:08:43.608Z,2.97
2023-02-21T03:11:33.080Z,2.80
2023-02-21T03:14:25.322Z,2.63
2023-02-21T03:17:18.829Z,2.20
2023-02-21T03:20:10.684Z,2.28
2023-02-21T03:22:59.766Z,2.00
2023-02-21T03:25:49.211Z,2.90
2023-02-21T03:28:38.988Z,2.78
2023-02-21T03:31:32.202Z,2.30
2023-02-21T03:34:20.352Z,2.90
2023-02-21T03:37:10.751Z,2.58
2023-02-21T03:39:59.395Z,2.25
2023-02-21T03:42:47.600Z,2.03
2023-02-21T03:45:37.430Z,2.78
2023-02-21T03:48:31.759Z,3.13
2023-02-21T03:51:20.413Z,2.58
2023-02-21T03:54:08.515Z,3.30
2023-02-21T03:56:56.564Z,3.00
2023-02-21T03:59:44.611Z,2.75
2023-02-21T04:02:34.011Z,2.92
2023-02-21T04:05:22.058Z,2.70
2023-02-21T04:08:11.517Z,2.60
2023-02-21T04:10:59.562Z,2.25
2023-02-21T04:13:47.592Z,3.20
2023-02-21T04:16:35.612Z,3.25
2023-02-21T04:19:25.037Z,2.63
2023-02-21T04:22:13.250Z,2.92
2023-02-21T04:25:01.299Z,2.75
2023-02-21T04:27:49.330Z,2.30
2023-02-21T04:30:37.413Z,3.35
2023-02-21T04:33:25.515Z,2.90
2023-02-21T04:36:14.890Z,2.63
2023-02-21T04:39:03.108Z,2.67
2023-02-21T04:41:51.107Z,2.80
2023-02-21T04:44:40.302Z,2.30
2023-02-21T04:47:29.738Z,3.40
2023-02-21T04:50:17.948Z,2.58
2023-02-21T04:53:07.346Z,2.97
2023-02-21T04:55:55.369Z,3.55
2023-02-21T04:58:45.711Z,2.65
2023-02-21T05:01:34.115Z,2.60
2023-02-21T05:04:22.297Z,3.67
2023-02-21T05:07:10.478Z,2.70
2023-02-21T05:09:59.913Z,2.15
2023-02-21T05:12:48.086Z,2.67
2023-02-21T05:15:36.150Z,2.50
2023-02-21T05:18:28.687Z,2.30
2023-02-21T05:21:17.685Z,2.90
2023-02-21T05:24:06.550Z,2.58
2023-02-21T05:26:56.140Z,2.67
2023-02-21T05:29:46.985Z,2.95
2023-02-21T05:32:35.040Z,3.05
2023-02-21T05:35:23.070Z,2.38
2023-02-21T05:38:11.124Z,1.90
2023-02-21T05:40:59.764Z,2.28
2023-02-21T05:43:50.427Z,2.70
2023-02-21T05:46:38.439Z,2.90
2023-02-21T05:49:27.908Z,2.38
2023-02-21T05:52:17.535Z,2.78
2023-02-21T05:55:06.044Z,2.53
2023-02-21T05:57:55.382Z,2.30
2023-02-21T06:00:44.761Z,2.40
2023-02-21T06:03:33.191Z,2.92
2023-02-21T06:06:21.258Z,2.05
2023-02-21T06:09:10.429Z,3.13
2023-02-21T06:14:23.907Z,2.13
2023-02-21T06:17:13.293Z,2.17
2023-02-21T06:20:01.375Z,2.47
2023-02-21T06:22:49.547Z,2.70
2023-02-21T06:25:37.604Z,2.58
2023-02-21T06:28:29.477Z,2.42
2023-02-21T06:31:18.971Z,1.90
2023-02-21T06:34:08.493Z,3.25
2023-02-21T06:36:56.933Z,3.17
2023-02-21T06:39:45.041Z,3.00
2023-02-21T06:42:33.226Z,2.45
2023-02-21T06:45:21.256Z,3.10
2023-02-21T06:48:09.320Z,2.95
2023-02-21T06:50:58.713Z,2.55
2023-02-21T06:53:51.240Z,3.22
2023-02-21T06:56:39.378Z,2.28
2023-02-21T06:59:27.455Z,2.83
2023-02-21T07:02:18.916Z,2.80
2023-02-21T07:05:08.226Z,2.90
2023-02-21T07:07:57.632Z,1.50
2023-02-21T07:10:45.884Z,1.52
2023-02-21T07:13:34.179Z,1.65
2023-02-21T07:16:22.628Z,2.10
2023-02-21T07:19:15.703Z,1.80
2023-02-21T07:22:04.166Z,1.50
2023-02-21T07:24:54.062Z,1.77
2023-02-21T07:27:42.055Z,1.35
2023-02-21T07:30:30.203Z,2.42
2023-02-21T07:33:18.274Z,2.83
2023-02-21T07:36:06.862Z,2.35
2023-02-21T07:38:54.883Z,2.13
2023-02-21T07:41:44.234Z,3.15
2023-02-21T07:44:32.313Z,2.08
2023-02-21T07:47:20.353Z,1.80
2023-02-21T07:50:09.058Z,3.10
2023-02-21T07:52:59.711Z,2.00
2023-02-21T07:55:47.846Z,2.08
2023-02-21T07:58:37.989Z,1.60
2023-02-21T08:01:27.470Z,1.42
2023-02-21T08:04:15.734Z,1.42
2023-02-21T08:07:05.245Z,1.70
2023-02-21T08:09:53.267Z,1.48
2023-02-21T08:12:41.280Z,1.60
2023-02-21T08:15:30.865Z,1.52
2023-02-21T08:18:24.079Z,1.63
2023-02-21T08:21:12.120Z,1.60
2023-02-21T08:24:00.230Z,1.70
2023-02-21T08:26:48.622Z,1.60
2023-02-21T08:29:36.753Z,1.23
2023-02-21T08:32:26.627Z,1.50
2023-02-21T08:35:16.104Z,1.20
2023-02-21T08:38:05.436Z,1.90
2023-02-21T08:40:55.926Z,1.67
2023-02-21T08:43:47.425Z,2.40
2023-02-21T08:46:36.829Z,1.60
2023-02-21T08:49:26.356Z,1.42
2023-02-21T08:52:14.701Z,1.10
2023-02-21T08:55:02.911Z,1.02
2023-02-21T08:57:53.325Z,1.48
2023-02-21T09:00:41.652Z,3.35
2023-02-21T09:03:29.763Z,1.77
2023-02-21T09:06:19.545Z,1.20
2023-02-21T09:09:07.585Z,1.65
2023-02-21T09:11:55.651Z,1.13
2023-02-21T09:14:44.761Z,1.00
2023-02-21T09:17:33.960Z,1.00
2023-02-21T09:20:23.905Z,1.00
2023-02-21T09:23:15.379Z,1.50
2023-02-21T09:26:03.383Z,1.00
2023-02-21T09:28:51.546Z,1.30
2023-02-21T09:31:39.677Z,0.88
2023-02-21T09:34:28.627Z,1.00
2023-02-21T09:37:16.689Z,1.00
2023-02-21T09:40:08.780Z,0.90
2023-02-21T09:42:59.171Z,0.90
2023-02-21T09:45:48.739Z,0.75
2023-02-21T09:48:37.004Z,1.10
2023-02-21T09:51:26.022Z,1.80
2023-02-21T09:54:24.129Z,1.27
2023-02-21T09:57:17.562Z,0.80
2023-02-21T10:00:17.963Z,1.00
2023-02-21T10:03:17.961Z,9.80
2023-02-21T10:06:18.245Z,3.67
2023-02-21T10:09:15.718Z,2.38
2023-02-21T10:12:13.973Z,1.60
2023-02-21T10:15:22.810Z,1.48
2023-02-21T10:18:22.999Z,0.93
2023-02-21T10:21:17.897Z,1.20
2023-02-21T10:24:13.780Z,0.85
2023-02-21T10:27:05.575Z,1.00
2023-02-21T10:29:58.328Z,1.00
2023-02-21T10:32:48.302Z,1.00
2023-02-21T10:35:38.270Z,0.80
2023-02-21T10:38:28.017Z,0.82
2023-02-21T10:41:17.611Z,1.10
2023-02-21T10:44:11.459Z,1.00
2023-02-21T10:47:05.486Z,0.90
2023-02-21T10:50:02.320Z,0.80
2023-02-21T10:52:52.331Z,0.90
2023-02-21T10:55:40.388Z,0.90
2023-02-21T10:58:29.168Z,0.90
2023-02-21T11:01:21.300Z,0.80
2023-02-21T11:04:29.393Z,2.83
2023-02-21T11:07:19.053Z,1.80
2023-02-21T11:10:29.366Z,1.20
2023-02-21T11:13:19.388Z,1.00
2023-02-21T11:16:12.071Z,0.85
2023-02-21T11:19:06.736Z,1.30
2023-02-21T11:21:57.255Z,1.30
2023-02-21T11:25:06.333Z,1.20
2023-02-21T11:28:04.201Z,1.38
2023-02-21T11:31:07.484Z,0.90
2023-02-21T11:33:59.256Z,1.00
2023-02-21T11:36:49.544Z,0.80
2023-02-21T11:39:40.016Z,1.50
2023-02-21T11:42:32.233Z,0.90
2023-02-21T11:45:29.633Z,1.00
2023-02-21T11:48:19.879Z,0.88
2023-02-21T11:51:19.125Z,1.30
2023-02-21T11:54:07.894Z,1.02
2023-02-21T11:57:04.655Z,2.95
2023-02-21T12:00:08.764Z,2.63
2023-02-21T12:03:07.543Z,2.33
2023-02-21T12:06:03.973Z,1.80
2023-02-21T12:08:59.186Z,2.40
2023-02-21T12:11:56.762Z,1.83
2023-02-21T12:14:56.956Z,1.63
2023-02-21T12:18:04.440Z,1.52
2023-02-21T12:21:08.878Z,1.83
2023-02-21T12:24:06.657Z,1.73
2023-02-21T12:27:01.805Z,1.67
2023-02-21T12:30:04.960Z,1.40
2023-02-21T12:33:02.419Z,1.55
2023-02-21T12:36:15.630Z,1.30
2023-02-21T12:39:16.937Z,1.25
2023-02-21T12:42:29.701Z,1.05
2023-02-21T12:45:40.860Z,1.40
2023-02-21T12:48:34.375Z,1.25
2023-02-21T12:51:26.840Z,0.93
2023-02-21T12:54:20.915Z,2.03
2023-02-21T12:57:14.013Z,0.90
2023-02-21T13:00:17.370Z,1.00
2023-02-21T13:03:24.995Z,1.00
2023-02-21T13:06:21.183Z,0.85
2023-02-21T13:09:16.310Z,1.00
2023-02-21T13:12:09.987Z,0.90
2023-02-21T13:15:01.620Z,1.00
2023-02-21T13:18:01.336Z,1.00
2023-02-21T13:20:55.875Z,1.15
2023-02-21T13:24:21.342Z,0.90
2023-02-21T13:27:40.854Z,0.93
2023-02-21T13:30:39.190Z,0.90
2023-02-21T13:33:38.464Z,1.05
2023-02-21T13:36:32.325Z,0.90
2023-02-21T13:39:31.787Z,1.27
2023-02-21T13:42:22.602Z,1.67
2023-02-21T13:45:18.500Z,1.25
2023-02-21T13:48:26.727Z,1.17
2023-02-21T13:51:49.913Z,1.45
2023-02-21T13:55:22.650Z,2.05
2023-02-21T13:58:36.139Z,2.00
2023-02-21T14:01:41.721Z,1.77
2023-02-21T14:05:01.783Z,1.30
2023-02-21T14:07:58.260Z,1.63
2023-02-21T14:10:49.078Z,1.50
2023-02-21T14:13:41.622Z,1.48
2023-02-21T14:16:35.312Z,1.48
2023-02-21T14:19:27.293Z,1.15
2023-02-21T14:22:17.437Z,1.42
2023-02-21T14:25:11.993Z,1.25
2023-02-21T14:28:00.383Z,1.00
2023-02-21T14:30:48.479Z,1.00
2023-02-21T14:33:37.210Z,0.80
2023-02-21T14:36:25.449Z,1.13
2023-02-21T14:39:14.222Z,0.93
2023-02-21T14:42:31.913Z,1.02
2023-02-21T14:45:41.429Z,1.35
2023-02-21T14:48:52.778Z,1.15
2023-02-21T14:52:18.773Z,0.90
2023-02-21T14:55:44.873Z,1.00
2023-02-21T14:58:49.935Z,0.80
2023-02-21T15:01:48.859Z,0.70
2023-02-21T15:04:42.471Z,0.80
2023-02-21T15:07:35.543Z,0.90
2023-02-21T15:10:26.024Z,0.85
2023-02-21T15:13:25.885Z,0.80
2023-02-21T15:16:17.416Z,1.00
2023-02-21T15:19:05.526Z,0.73
2023-02-21T15:22:16.693Z,0.80
2023-02-21T15:25:18.569Z,0.80
2023-02-21T15:28:19.460Z,1.00
2023-02-21T15:31:10.414Z,0.73
2023-02-21T15:34:00.916Z,1.27
2023-02-21T15:36:54.141Z,0.93
2023-02-21T15:39:45.080Z,0.80
2023-02-21T15:42:35.872Z,1.00
2023-02-21T15:45:26.619Z,0.80
2023-02-21T15:48:15.030Z,0.80
2023-02-21T15:51:08.612Z,0.90
2023-02-21T15:54:10.601Z,0.82
2023-02-21T15:57:09.534Z,0.90
2023-02-21T16:00:19.205Z,1.50
2023-02-21T16:03:30.926Z,1.33
2023-02-21T16:06:23.645Z,1.10
2023-02-21T16:09:24.451Z,1.05
2023-02-21T16:12:27.635Z,0.77
2023-02-21T16:15:25.191Z,1.25
2023-02-21T16:18:20.009Z,0.70
2023-02-21T16:21:20.924Z,0.90
2023-02-21T16:24:32.270Z,0.90
2023-02-21T16:27:20.310Z,0.80
2023-02-21T16:30:13.934Z,0.90
2023-02-21T16:33:04.291Z,0.90
2023-02-21T16:35:52.621Z,0.88
2023-02-21T16:38:40.658Z,0.82
2023-02-21T16:41:30.123Z,0.70
2023-02-21T16:44:18.136Z,0.98
2023-02-21T16:47:07.477Z,1.13
2023-02-21T16:49:55.554Z,1.00
2023-02-21T16:52:43.577Z,0.85
2023-02-21T16:55:32.436Z,0.90
2023-02-21T16:58:27.006Z,0.90
2023-02-21T17:01:17.072Z,1.00
2023-02-21T17:04:06.967Z,0.80
2023-02-21T17:06:57.364Z,0.80
2023-02-21T17:09:45.368Z,1.00
2023-02-21T17:12:33.392Z,0.80
2023-02-21T17:15:23.814Z,1.00
2023-02-21T17:18:12.182Z,0.80
2023-02-21T17:21:00.540Z,0.70
2023-02-21T17:23:48.559Z,1.00
2023-02-21T17:26:36.678Z,1.00
2023-02-21T17:29:25.475Z,0.95
2023-02-21T17:32:16.301Z,0.80
2023-02-21T17:35:04.711Z,1.30
2023-02-21T17:37:53.054Z,1.13
2023-02-21T17:40:41.087Z,0.90
2023-02-21T17:43:29.141Z,1.27
2023-02-21T17:46:20.233Z,1.27
2023-02-21T17:49:09.672Z,0.95
2023-02-21T17:51:57.729Z,1.00
2023-02-21T17:54:45.826Z,0.82
2023-02-21T17:57:37.223Z,0.98
2023-02-21T18:00:28.386Z,1.10
2023-02-21T18:03:16.486Z,0.90
2023-02-21T18:06:06.652Z,0.82
2023-02-21T18:08:54.978Z,1.10
2023-02-21T18:11:49.053Z,0.80
2023-02-21T18:14:37.068Z,1.13
2023-02-21T18:17:25.119Z,0.95
2023-02-21T18:20:15.531Z,0.80
2023-02-21T18:23:06.512Z,0.93
2023-02-21T18:25:54.670Z,1.10
2023-02-21T18:28:42.974Z,0.70
2023-02-21T18:31:31.089Z,0.90
2023-02-21T18:34:19.178Z,0.90
2023-02-21T18:37:08.310Z,1.17
2023-02-21T18:39:57.950Z,0.90
2023-02-21T18:42:47.652Z,1.10
2023-02-21T18:45:35.748Z,1.00
2023-02-21T18:48:24.997Z,0.90
2023-02-21T18:51:14.827Z,1.25
2023-02-21T18:54:03.451Z,1.10
2023-02-21T18:56:53.602Z,1.05
2023-02-21T18:59:41.659Z,1.02
2023-02-21T19:02:30.009Z,1.27
2023-02-21T19:05:20.508Z,0.95
2023-02-21T19:08:08.613Z,1.17
2023-02-21T19:10:56.658Z,1.10
2023-02-21T19:13:47.384Z,1.00
2023-02-21T19:16:35.691Z,1.52
2023-02-21T19:19:24.061Z,1.38
2023-02-21T19:22:12.077Z,1.35
2023-02-21T19:25:00.099Z,1.40
2023-02-21T19:27:48.117Z,1.05
2023-02-21T19:30:37.627Z,1.20
2023-02-21T19:33:25.870Z,1.40
2023-02-21T19:36:14.259Z,1.42
2023-02-21T19:39:02.275Z,0.98
2023-02-21T19:41:50.318Z,1.02
2023-02-21T19:44:38.699Z,1.63
2023-02-21T19:47:29.581Z,1.33
2023-02-21T19:50:17.874Z,1.15
2023-02-21T19:53:06.013Z,1.15
2023-02-21T19:55:54.120Z,1.20
2023-02-21T19:58:43.883Z,1.00
2023-02-21T20:01:33.478Z,1.30
2023-02-21T20:04:23.782Z,1.30
2023-02-21T20:07:12.225Z,1.30
2023-02-21T20:10:00.228Z,1.17
2023-02-21T20:12:48.269Z,1.20
2023-02-21T20:15:36.784Z,1.10
2023-02-21T20:18:24.822Z,1.30
2023-02-21T20:21:20.914Z,1.20
2023-02-21T20:24:10.266Z,1.10
2023-02-21T20:26:59.081Z,1.08
2023-02-21T20:29:47.766Z,1.30
2023-02-21T20:32:35.876Z,1.10
2023-02-21T20:35:24.635Z,1.58
2023-02-21T20:38:13.995Z,1.27
2023-02-21T20:41:02.025Z,1.30
2023-02-21T20:43:50.067Z,1.00
2023-02-21T20:46:38.455Z,1.20
2023-02-21T20:49:26.548Z,1.00
2023-02-21T20:52:15.452Z,1.48
2023-02-21T20:55:05.253Z,1.15
2023-02-21T20:57:53.638Z,0.90
2023-02-21T21:00:42.550Z,1.00
2023-02-21T21:03:30.858Z,1.15
2023-02-21T21:06:18.939Z,1.30
2023-02-21T21:09:07.612Z,1.20
2023-02-21T21:12:00.664Z,1.30
2023-02-21T21:14:53.028Z,1.20
2023-02-21T21:17:41.082Z,1.33
2023-02-21T21:20:30.876Z,1.40
2023-02-21T21:23:19.168Z,1.48
2023-02-21T21:26:08.660Z,1.20
2023-02-21T21:28:58.554Z,1.20
2023-02-21T21:31:50.479Z,1.08
2023-02-21T21:34:41.986Z,1.65
2023-02-21T21:37:30.867Z,1.10
2023-02-21T21:40:19.132Z,1.58
2023-02-21T21:43:08.168Z,1.20
2023-02-21T21:45:58.477Z,1.70
2023-02-21T21:48:46.575Z,1.30
2023-02-21T21:51:34.622Z,1.13
2023-02-21T21:54:23.604Z,1.30
2023-02-21T21:57:12.614Z,1.23
2023-02-21T22:00:00.645Z,1.80
2023-02-21T22:02:51.406Z,1.60
2023-02-21T22:05:39.414Z,1.60
2023-02-21T22:08:28.096Z,1.27
2023-02-21T22:11:16.425Z,1.10
2023-02-21T22:14:05.281Z,1.30
2023-02-21T22:16:54.517Z,1.70
2023-02-21T22:19:43.948Z,2.03
2023-02-21T22:22:32.093Z,2.30
2023-02-21T22:25:21.835Z,1.45
2023-02-21T22:28:13.408Z,1.30
2023-02-21T22:31:01.462Z,1.15
2023-02-21T22:33:49.570Z,1.25
2023-02-21T22:36:38.927Z,1.60
2023-02-21T22:39:28.164Z,1.75
2023-02-21T22:42:18.004Z,1.95
2023-02-21T22:45:06.675Z,1.58
2023-02-21T22:47:57.645Z,1.30
2023-02-21T22:50:47.402Z,1.35
2023-02-21T22:53:36.759Z,1.20
2023-02-21T22:56:27.422Z,1.50
2023-02-21T22:59:15.480Z,1.45
2023-02-21T23:02:04.085Z,1.58
2023-02-21T23:04:52.622Z,1.48
2023-02-21T23:07:40.677Z,1.20
2023-02-21T23:10:30.057Z,1.30
2023-02-21T23:13:20.329Z,1.40
2023-02-21T23:16:10.275Z,1.58
2023-02-21T23:18:58.368Z,1.92
2023-02-21T23:21:47.361Z,2.10
2023-02-21T23:24:35.386Z,1.70
2023-02-21T23:27:24.783Z,1.60
2023-02-21T23:30:13.567Z,1.60
2023-02-21T23:33:01.697Z,1.50
2023-02-21T23:35:52.025Z,2.15
2023-02-21T23:38:40.056Z,2.17
2023-02-21T23:41:29.152Z,1.70
2023-02-21T23:44:18.549Z,1.27
2023-02-21T23:47:06.849Z,1.52
2023-02-21T23:49:58.012Z,1.55
2023-02-21T23:52:47.928Z,1.17
2023-02-21T23:55:36.542Z,1.35
2023-02-21T23:58:26.841Z,1.65
